Kahului, HI

6:57 AM HST on December 18, 2014 (GMT -1000)
Kehalani | Change Station
CLOSE
Current Station
Personal Weather Station
Location: Wailuku, HI
Elevation: 358 ft
Nearby Weather Stations

Elev 358 ft 20.87 °N, 156.50 °W | Updated 9 minutes ago

Scattered Clouds
Scattered Clouds
70.9 °F
Feels Like 70.9 °F
N
8.9
Wind Variable Wind from NNW

Today
High -- | Low -- °F
--% Chance of Precip.
Yesterday
High -- | Low -- °F
Precip. -- in
6:56 AM 5:48 PM
Waning Crescent, 13% visible
Pressure 30.17 in
Visibility 10.0 miles
Clouds Scattered Clouds 6000 ft
Dew Point 66 °F
Humidity 86%
Rainfall 0.00 in
Snow Depth Not available.
UV 0 out of 12
Pollen Not available.
Air Quality Not available.
Flu Activity Not available.
METAR PHOG 181654Z 13003KT 10SM SCT060 22/18 A3015 RMK AO2 SLP214 T02170178 $

More Conditions Fewer Conditions

Pressure 30.17 in
Visibility 10.0 miles
Clouds Scattered Clouds 6000 ft
Dew Point 66 °F
Humidity 86%
Rainfall 0.00 in
Snow Depth Not available.
UV 0 out of 12
Pollen Not available.
Air Quality Not available.
Flu Activity Not available.
METAR PHOG 181654Z 13003KT 10SM SCT060 22/18 A3015 RMK AO2 SLP214 T02170178 $

More Conditions Fewer Conditions

10-Day Weather Forecast

Almanac

Astronomy

Dec. 18, 2014 Rise Set
Actual Time
Civil Twilight
Nautical Twilight
Astronomical Twilight
Moon
Length of Visible Light
Length of Day
Tomorrow will be .
, % of the Moon is Illuminated

Today's Extremes

State Highs State Lows

Community

WunderPhotos

Upload Photos

1,778,960 photos uploaded!

WunderBlogs® & News

Nearby

Air Quality

  Air Quality AQ Index Pollutant
Not available.

Snow Depth

Station Depth Elevation

Earthquake Activity

City Distance Mag. Time & Date
Minimum magnitude displayed is 2.5.

Coastal Water Temperatures

Place Temperature

Nearby Weather Stations